createdAt,value
2023-04-26T00:01:05.478Z,52.90
2023-04-26T00:06:10.125Z,53.19
2023-04-26T00:11:11.937Z,53.35
2023-04-26T00:16:15.004Z,53.57
2023-04-26T00:21:16.930Z,53.38
2023-04-26T00:26:18.739Z,53.45
2023-04-26T00:31:20.569Z,53.50
2023-04-26T00:36:22.547Z,53.56
2023-04-26T00:41:24.571Z,53.64
2023-04-26T00:46:28.925Z,53.65
2023-04-26T00:51:34.034Z,53.73
2023-04-26T00:56:37.332Z,53.85
2023-04-26T01:01:40.827Z,53.88
2023-04-26T01:06:42.834Z,53.83
2023-04-26T01:11:45.117Z,54.04
2023-04-26T01:16:47.579Z,54.16
2023-04-26T01:21:49.707Z,54.26
2023-04-26T01:26:51.652Z,54.18
2023-04-26T01:31:55.473Z,54.27
2023-04-26T01:36:57.316Z,54.24
2023-04-26T01:41:59.185Z,54.38
2023-04-26T01:47:01.116Z,54.50
2023-04-26T01:52:03.552Z,54.79
2023-04-26T01:57:05.388Z,54.88
2023-04-26T02:02:07.268Z,54.88
2023-04-26T02:07:13.170Z,55.01
2023-04-26T02:12:20.773Z,55.00
2023-04-26T02:17:22.899Z,55.12
2023-04-26T02:22:27.950Z,55.13
2023-04-26T02:27:29.796Z,54.97
2023-04-26T02:32:31.647Z,55.08
2023-04-26T02:37:34.282Z,55.01
2023-04-26T02:42:36.583Z,55.01
2023-04-26T02:47:38.936Z,54.85
2023-04-26T02:52:41.376Z,55.27
2023-04-26T02:57:43.229Z,55.39
2023-04-26T03:02:45.998Z,55.44
2023-04-26T03:07:47.979Z,55.68
2023-04-26T03:12:50.006Z,55.46
2023-04-26T03:17:52.424Z,55.54
2023-04-26T03:22:54.658Z,55.58
2023-04-26T03:27:57.082Z,55.69
2023-04-26T03:32:59.038Z,55.81
2023-04-26T03:38:01.318Z,55.91
2023-04-26T03:43:03.502Z,55.93
2023-04-26T03:48:05.675Z,56.00
2023-04-26T03:53:07.898Z,55.95
2023-04-26T03:58:09.744Z,55.97
2023-04-26T04:03:12.688Z,55.99
2023-04-26T04:08:16.165Z,56.00
2023-04-26T04:13:18.227Z,55.83
2023-04-26T04:18:20.186Z,55.77
2023-04-26T04:23:22.234Z,56.01
2023-04-26T04:28:24.045Z,55.99
2023-04-26T04:33:28.608Z,55.94
2023-04-26T04:38:31.955Z,55.86
2023-04-26T04:43:34.003Z,55.80
2023-04-26T04:48:38.783Z,55.62
2023-04-26T04:53:40.976Z,55.51
2023-04-26T04:58:42.795Z,55.39
2023-04-26T05:03:45.347Z,55.61
2023-04-26T05:08:47.631Z,55.36
2023-04-26T05:13:52.257Z,55.49
2023-04-26T05:18:55.259Z,55.45
2023-04-26T05:23:57.150Z,55.68
2023-04-26T05:28:59.203Z,55.56
2023-04-26T05:34:10.888Z,55.77
2023-04-26T05:39:14.508Z,55.88
2023-04-26T05:44:16.800Z,55.67
2023-04-26T05:49:19.818Z,55.96
2023-04-26T05:54:22.304Z,56.10
2023-04-26T05:59:24.143Z,56.13
2023-04-26T06:04:26.160Z,56.22
2023-04-26T06:09:45.070Z,56.30
2023-04-26T06:14:47.005Z,56.43
2023-04-26T06:19:53.799Z,56.16
2023-04-26T06:24:55.763Z,56.04
2023-04-26T06:29:57.754Z,56.02
2023-04-26T06:35:01.372Z,56.00
2023-04-26T06:40:04.004Z,55.73
2023-04-26T06:45:07.340Z,55.46
2023-04-26T06:50:11.119Z,55.13
2023-04-26T06:55:13.131Z,55.08
2023-04-26T07:00:15.298Z,55.02
2023-04-26T07:05:17.441Z,54.56
2023-04-26T07:10:21.258Z,54.43
2023-04-26T07:15:23.049Z,54.04
2023-04-26T07:20:24.885Z,53.96
2023-04-26T07:25:27.079Z,53.97
2023-04-26T07:30:29.074Z,53.66
2023-04-26T07:35:31.038Z,53.68
2023-04-26T07:40:33.154Z,53.61
2023-04-26T07:45:35.179Z,52.96
2023-04-26T07:50:37.318Z,52.84
2023-04-26T07:55:39.186Z,52.69
2023-04-26T08:00:41.827Z,52.37
2023-04-26T08:05:44.263Z,51.90
2023-04-26T08:10:46.353Z,51.11
2023-04-26T08:15:48.558Z,50.96
2023-04-26T08:20:50.443Z,50.29
2023-04-26T08:25:52.588Z,49.29
2023-04-26T08:30:54.578Z,48.76
2023-04-26T08:35:56.876Z,47.86
2023-04-26T08:41:03.562Z,48.36
2023-04-26T08:46:12.884Z,48.29
2023-04-26T08:51:16.396Z,48.75
2023-04-26T08:56:18.769Z,48.55
2023-04-26T09:01:22.303Z,48.28
2023-04-26T09:06:25.097Z,47.97
2023-04-26T09:11:26.882Z,48.01
2023-04-26T09:16:38.260Z,48.02
2023-04-26T09:21:47.396Z,47.67
2023-04-26T09:27:03.283Z,47.16
2023-04-26T09:32:05.475Z,47.21
2023-04-26T09:37:14.007Z,47.06
2023-04-26T09:42:18.258Z,47.00
2023-04-26T09:47:22.233Z,47.27
2023-04-26T09:52:24.156Z,47.27
2023-04-26T09:57:26.306Z,46.44
2023-04-26T10:02:30.128Z,46.06
2023-04-26T10:07:32.322Z,46.01
2023-04-26T10:12:34.388Z,46.19
2023-04-26T10:17:36.239Z,45.87
2023-04-26T10:22:46.345Z,45.59
2023-04-26T10:27:49.462Z,45.34
2023-04-26T10:32:57.522Z,45.25
2023-04-26T10:37:59.543Z,44.67
2023-04-26T10:43:16.373Z,44.89
2023-04-26T10:48:28.557Z,44.48
2023-04-26T10:53:45.620Z,44.62
2023-04-26T10:58:47.435Z,44.56
2023-04-26T11:03:58.912Z,43.42
2023-04-26T11:09:01.009Z,43.38
2023-04-26T11:14:03.519Z,43.32
2023-04-26T11:19:09.894Z,42.82
2023-04-26T11:24:15.921Z,42.52
2023-04-26T11:29:21.498Z,41.68
2023-04-26T11:34:33.580Z,41.02
2023-04-26T11:39:38.615Z,41.43
2023-04-26T11:44:41.284Z,41.62
2023-04-26T11:49:43.442Z,41.32
2023-04-26T11:54:45.231Z,41.13
2023-04-26T11:59:47.075Z,41.40
2023-04-26T12:04:59.828Z,41.61
2023-04-26T12:10:17.254Z,41.95
2023-04-26T12:15:22.565Z,42.39
2023-04-26T12:20:35.860Z,42.30
2023-04-26T12:25:39.613Z,42.36
2023-04-26T12:30:41.462Z,41.62
2023-04-26T12:35:43.258Z,40.80
2023-04-26T12:40:45.488Z,41.58
2023-04-26T12:45:49.058Z,41.37
2023-04-26T12:50:51.477Z,41.21
2023-04-26T12:55:53.478Z,41.38
2023-04-26T13:00:55.578Z,41.33
2023-04-26T13:05:57.348Z,41.48
2023-04-26T13:10:59.391Z,41.09
2023-04-26T13:16:01.482Z,40.79
2023-04-26T13:21:03.630Z,40.53
2023-04-26T13:26:05.642Z,40.93
2023-04-26T13:31:07.866Z,41.32
2023-04-26T13:36:09.681Z,41.35
2023-04-26T13:41:11.856Z,41.41
2023-04-26T13:46:13.716Z,41.29
2023-04-26T13:51:15.532Z,41.27
2023-04-26T13:56:18.223Z,40.57
2023-04-26T14:01:20.104Z,40.89
2023-04-26T14:06:22.418Z,41.14
2023-04-26T14:11:24.521Z,41.14
2023-04-26T14:16:26.924Z,41.31
2023-04-26T14:21:28.936Z,41.38
2023-04-26T14:26:31.044Z,40.98
2023-04-26T14:31:33.122Z,40.72
2023-04-26T14:36:35.068Z,40.73
2023-04-26T14:41:37.522Z,40.77
2023-04-26T14:46:42.423Z,40.78
2023-04-26T14:51:44.293Z,40.49
2023-04-26T14:56:46.394Z,40.79
2023-04-26T15:01:49.005Z,40.90
2023-04-26T15:06:51.255Z,41.34
2023-04-26T15:11:53.412Z,41.29
2023-04-26T15:16:55.282Z,41.42
2023-04-26T15:21:57.083Z,41.35
2023-04-26T15:26:58.861Z,41.42
2023-04-26T15:32:01.078Z,41.71
2023-04-26T15:37:02.931Z,41.75
2023-04-26T15:42:05.817Z,41.58
2023-04-26T15:47:07.961Z,41.78
2023-04-26T15:52:09.788Z,41.86
2023-04-26T15:57:11.501Z,41.87
2023-04-26T16:02:13.308Z,42.14
2023-04-26T16:07:15.798Z,42.21
2023-04-26T16:12:17.669Z,42.29
2023-04-26T16:17:19.467Z,42.09
2023-04-26T16:22:21.422Z,41.96
2023-04-26T16:27:23.264Z,41.81
2023-04-26T16:32:26.577Z,42.00
2023-04-26T16:37:28.505Z,42.10
2023-04-26T16:42:31.081Z,42.10
2023-04-26T16:47:34.252Z,42.09
2023-04-26T16:52:36.292Z,41.99
2023-04-26T16:57:38.239Z,42.09
2023-04-26T17:02:41.084Z,42.11
2023-04-26T17:07:43.004Z,42.35
2023-04-26T17:12:44.748Z,42.40
2023-04-26T17:17:46.611Z,42.40
2023-04-26T17:22:48.763Z,42.42
2023-04-26T17:27:51.665Z,42.43
2023-04-26T17:32:53.593Z,42.67
2023-04-26T17:37:55.547Z,42.65
2023-04-26T17:42:57.591Z,42.80
2023-04-26T17:47:59.426Z,42.92
2023-04-26T17:53:02.559Z,42.88
2023-04-26T17:58:05.498Z,43.09
2023-04-26T18:03:07.952Z,42.97
2023-04-26T18:08:09.931Z,42.84
2023-04-26T18:13:12.035Z,43.08
2023-04-26T18:18:14.171Z,43.24
2023-04-26T18:23:16.518Z,43.32
2023-04-26T18:28:18.383Z,43.36
2023-04-26T18:33:20.488Z,43.40
2023-04-26T18:38:22.537Z,43.57
2023-04-26T18:43:24.371Z,43.56
2023-04-26T18:48:26.270Z,43.68
2023-04-26T18:53:28.122Z,43.77
2023-04-26T18:58:29.961Z,44.01
2023-04-26T19:03:32.420Z,44.23
2023-04-26T19:08:34.512Z,44.40
2023-04-26T19:13:36.412Z,44.65
2023-04-26T19:18:40.509Z,44.73
2023-04-26T19:23:43.548Z,45.03
2023-04-26T19:28:46.967Z,45.16
2023-04-26T19:33:48.835Z,45.08
2023-04-26T19:38:50.848Z,45.23
2023-04-26T19:43:52.912Z,45.25
2023-04-26T19:48:54.787Z,45.33
2023-04-26T19:53:56.590Z,45.55
2023-04-26T19:58:58.443Z,45.57
2023-04-26T20:04:00.443Z,45.63
2023-04-26T20:09:02.707Z,45.89
2023-04-26T20:14:04.561Z,45.93
2023-04-26T20:19:06.587Z,46.14
2023-04-26T20:24:08.900Z,46.25
2023-04-26T20:29:10.926Z,46.21
2023-04-26T20:34:12.838Z,46.33
2023-04-26T20:39:14.686Z,46.36
2023-04-26T20:44:16.601Z,46.40
2023-04-26T20:49:18.514Z,46.38
2023-04-26T20:54:20.957Z,46.75
2023-04-26T20:59:25.020Z,46.83
2023-04-26T21:04:27.379Z,46.99
2023-04-26T21:09:29.721Z,47.14
2023-04-26T21:14:31.788Z,47.10
2023-04-26T21:19:33.695Z,47.23
2023-04-26T21:24:36.805Z,47.12
2023-04-26T21:29:38.633Z,47.13
2023-04-26T21:34:40.490Z,47.48
2023-04-26T21:39:42.273Z,47.55
2023-04-26T21:44:44.293Z,47.48
2023-04-26T21:49:46.262Z,47.70
2023-04-26T21:54:48.034Z,47.63
2023-04-26T21:59:50.620Z,47.92
2023-04-26T22:04:54.751Z,48.07
2023-04-26T22:09:56.483Z,48.04
2023-04-26T22:14:58.452Z,48.08
2023-04-26T22:20:00.297Z,48.19
2023-04-26T22:25:02.315Z,48.12
2023-04-26T22:30:20.311Z,48.31
2023-04-26T22:35:27.639Z,48.39
2023-04-26T22:40:29.545Z,48.55
2023-04-26T22:45:31.436Z,48.51
2023-04-26T22:50:33.391Z,48.59
2023-04-26T22:55:35.252Z,48.78
2023-04-26T23:00:37.198Z,48.64
2023-04-26T23:05:39.041Z,48.64
2023-04-26T23:10:40.851Z,48.81
2023-04-26T23:15:42.654Z,48.76
2023-04-26T23:20:44.550Z,48.70
2023-04-26T23:25:46.911Z,48.72
2023-04-26T23:30:49.941Z,49.01
2023-04-26T23:35:55.241Z,48.83
2023-04-26T23:40:57.465Z,48.92
2023-04-26T23:45:59.485Z,48.91
2023-04-26T23:51:01.736Z,49.17
2023-04-26T23:56:03.940Z,49.19
